sensor_id;sensor_type;location;lat;lon;timestamp;pressure;altitude;pressure_sealevel;temperature;humidity
8573;BME280;4324;42.012;24.872;2022-10-19T00:01:08;99546.34;;;10.63;50.23
8573;BME280;4324;42.012;24.872;2022-10-19T00:03:36;99559.22;;;10.76;50.47
8573;BME280;4324;42.012;24.872;2022-10-19T00:06:11;99553.84;;;10.68;50.25
8573;BME280;4324;42.012;24.872;2022-10-19T00:08:38;99542.41;;;10.67;50.44
8573;BME280;4324;42.012;24.872;2022-10-19T00:11:06;99546.94;;;10.75;50.36
8573;BME280;4324;42.012;24.872;2022-10-19T00:13:34;99549.59;;;10.75;50.29
8573;BME280;4324;42.012;24.872;2022-10-19T00:16:07;99546.28;;;10.73;50.29
8573;BME280;4324;42.012;24.872;2022-10-19T00:18:33;99547.13;;;10.73;50.21
8573;BME280;4324;42.012;24.872;2022-10-19T00:21:04;99543.63;;;10.73;50.23
8573;BME280;4324;42.012;24.872;2022-10-19T00:23:31;99530.53;;;10.71;50.42
8573;BME280;4324;42.012;24.872;2022-10-19T00:25:58;99530.69;;;10.70;50.36
8573;BME280;4324;42.012;24.872;2022-10-19T00:28:25;99528.34;;;10.66;50.59
8573;BME280;4324;42.012;24.872;2022-10-19T00:30:54;99530.69;;;10.70;50.48
8573;BME280;4324;42.012;24.872;2022-10-19T00:33:21;99524.56;;;10.69;50.25
8573;BME280;4324;42.012;24.872;2022-10-19T00:35:48;99504.91;;;10.54;50.50
8573;BME280;4324;42.012;24.872;2022-10-19T00:38:15;99523.44;;;10.72;50.26
8573;BME280;4324;42.012;24.872;2022-10-19T00:40:42;99498.38;;;10.66;50.27
8573;BME280;4324;42.012;24.872;2022-10-19T00:43:13;99509.50;;;10.70;50.18
8573;BME280;4324;42.012;24.872;2022-10-19T00:45:40;99479.28;;;10.54;49.97
8573;BME280;4324;42.012;24.872;2022-10-19T00:48:10;99471.94;;;10.48;50.02
8573;BME280;4324;42.012;24.872;2022-10-19T00:50:39;99455.94;;;10.32;50.06
8573;BME280;4324;42.012;24.872;2022-10-19T00:53:07;99485.03;;;10.50;50.00
8573;BME280;4324;42.012;24.872;2022-10-19T00:55:35;99471.88;;;10.40;49.97
8573;BME280;4324;42.012;24.872;2022-10-19T00:58:02;99485.34;;;10.47;50.28
8573;BME280;4324;42.012;24.872;2022-10-19T01:00:29;99484.81;;;10.43;50.13
8573;BME280;4324;42.012;24.872;2022-10-19T01:02:58;99488.81;;;10.47;50.07
8573;BME280;4324;42.012;24.872;2022-10-19T01:05:27;99484.50;;;10.46;50.17
8573;BME280;4324;42.012;24.872;2022-10-19T01:07:54;99479.22;;;10.46;50.07
8573;BME280;4324;42.012;24.872;2022-10-19T01:10:28;99463.25;;;10.38;50.11
8573;BME280;4324;42.012;24.872;2022-10-19T01:13:09;99470.81;;;10.33;50.14
8573;BME280;4324;42.012;24.872;2022-10-19T01:15:44;99476.13;;;10.33;50.21
8573;BME280;4324;42.012;24.872;2022-10-19T01:18:19;99465.81;;;10.30;50.47
8573;BME280;4324;42.012;24.872;2022-10-19T01:21:05;99475.44;;;10.31;50.29
8573;BME280;4324;42.012;24.872;2022-10-19T01:23:54;99477.00;;;10.24;50.02
8573;BME280;4324;42.012;24.872;2022-10-19T01:26:51;99474.22;;;10.25;50.45
8573;BME280;4324;42.012;24.872;2022-10-19T01:29:32;99472.00;;;10.21;50.44
8573;BME280;4324;42.012;24.872;2022-10-19T01:32:08;99385.25;;;9.70;50.15
8573;BME280;4324;42.012;24.872;2022-10-19T01:34:41;99462.72;;;10.16;50.37
8573;BME280;4324;42.012;24.872;2022-10-19T01:37:15;99460.59;;;10.20;50.40
8573;BME280;4324;42.012;24.872;2022-10-19T01:39:48;99441.16;;;10.11;50.48
8573;BME280;4324;42.012;24.872;2022-10-19T01:42:25;99441.84;;;10.13;50.58
8573;BME280;4324;42.012;24.872;2022-10-19T01:44:59;99452.81;;;10.18;50.60
8573;BME280;4324;42.012;24.872;2022-10-19T01:47:32;99441.69;;;10.15;50.70
8573;BME280;4324;42.012;24.872;2022-10-19T01:50:05;99448.34;;;10.19;50.59
8573;BME280;4324;42.012;24.872;2022-10-19T01:52:36;99458.09;;;10.18;50.58
8573;BME280;4324;42.012;24.872;2022-10-19T01:55:07;99443.50;;;10.14;50.77
8573;BME280;4324;42.012;24.872;2022-10-19T01:57:38;99441.69;;;10.15;50.70
8573;BME280;4324;42.012;24.872;2022-10-19T02:00:07;99426.56;;;10.07;50.73
8573;BME280;4324;42.012;24.872;2022-10-19T02:02:43;99440.03;;;10.14;50.69
8573;BME280;4324;42.012;24.872;2022-10-19T02:05:12;99442.31;;;10.09;50.58
8573;BME280;4324;42.012;24.872;2022-10-19T02:07:40;99447.06;;;10.05;50.88
8573;BME280;4324;42.012;24.872;2022-10-19T02:10:09;99448.19;;;10.03;50.91
8573;BME280;4324;42.012;24.872;2022-10-19T02:12:37;99439.91;;;9.98;50.99
8573;BME280;4324;42.012;24.872;2022-10-19T02:15:08;99431.09;;;9.97;50.79
8573;BME280;4324;42.012;24.872;2022-10-19T02:17:41;99429.44;;;9.96;50.84
8573;BME280;4324;42.012;24.872;2022-10-19T02:20:09;99423.50;;;9.94;50.89
8573;BME280;4324;42.012;24.872;2022-10-19T02:22:36;99408.50;;;9.85;50.53
8573;BME280;4324;42.012;24.872;2022-10-19T02:25:04;99422.09;;;9.90;50.74
8573;BME280;4324;42.012;24.872;2022-10-19T02:27:32;99409.06;;;9.88;50.69
8573;BME280;4324;42.012;24.872;2022-10-19T02:29:59;99395.75;;;9.80;50.48
8573;BME280;4324;42.012;24.872;2022-10-19T02:32:26;99398.09;;;9.83;50.68
8573;BME280;4324;42.012;24.872;2022-10-19T02:34:55;99397.28;;;9.83;50.67
8573;BME280;4324;42.012;24.872;2022-10-19T02:37:23;99394.75;;;9.81;50.61
8573;BME280;4324;42.012;24.872;2022-10-19T02:39:50;99400.22;;;9.80;50.83
8573;BME280;4324;42.012;24.872;2022-10-19T02:42:19;99391.59;;;9.78;50.76
8573;BME280;4324;42.012;24.872;2022-10-19T02:44:51;99382.00;;;9.77;50.73
8573;BME280;4324;42.012;24.872;2022-10-19T02:47:21;99372.72;;;9.73;50.69
8573;BME280;4324;42.012;24.872;2022-10-19T02:49:51;99381.53;;;9.81;50.76
8573;BME280;4324;42.012;24.872;2022-10-19T02:52:20;99363.94;;;9.72;50.46
8573;BME280;4324;42.012;24.872;2022-10-19T02:54:46;99380.34;;;9.76;50.61
8573;BME280;4324;42.012;24.872;2022-10-19T02:57:15;99409.50;;;9.84;50.54
8573;BME280;4324;42.012;24.872;2022-10-19T02:59:42;99395.06;;;9.78;50.60
8573;BME280;4324;42.012;24.872;2022-10-19T03:02:09;99403.53;;;9.82;50.63
8573;BME280;4324;42.012;24.872;2022-10-19T03:04:36;99402.56;;;9.83;50.90
8573;BME280;4324;42.012;24.872;2022-10-19T03:07:03;99384.19;;;9.81;50.96
8573;BME280;4324;42.012;24.872;2022-10-19T03:09:31;99381.31;;;9.75;50.89
8573;BME280;4324;42.012;24.872;2022-10-19T03:11:58;99391.53;;;9.87;50.85
8573;BME280;4324;42.012;24.872;2022-10-19T03:14:25;99364.09;;;9.70;50.85
8573;BME280;4324;42.012;24.872;2022-10-19T03:16:52;99389.53;;;9.89;50.86
8573;BME280;4324;42.012;24.872;2022-10-19T03:19:19;99357.16;;;9.69;50.83
8573;BME280;4324;42.012;24.872;2022-10-19T03:21:46;99385.25;;;9.88;50.92
8573;BME280;4324;42.012;24.872;2022-10-19T03:24:12;99388.72;;;9.89;50.98
8573;BME280;4324;42.012;24.872;2022-10-19T03:26:41;99380.25;;;9.85;50.93
8573;BME280;4324;42.012;24.872;2022-10-19T03:29:08;99378.53;;;9.94;51.05
8573;BME280;4324;42.012;24.872;2022-10-19T03:31:34;99375.88;;;9.94;51.02
8573;BME280;4324;42.012;24.872;2022-10-19T03:34:01;99376.31;;;9.89;50.90
8573;BME280;4324;42.012;24.872;2022-10-19T03:36:30;99346.41;;;9.71;50.96
8573;BME280;4324;42.012;24.872;2022-10-19T03:38:59;99370.50;;;9.86;51.11
8573;BME280;4324;42.012;24.872;2022-10-19T03:41:28;99368.72;;;9.86;50.93
8573;BME280;4324;42.012;24.872;2022-10-19T03:43:56;99364.53;;;9.84;50.90
8573;BME280;4324;42.012;24.872;2022-10-19T03:46:23;99354.72;;;9.76;50.67
8573;BME280;4324;42.012;24.872;2022-10-19T03:48:50;99372.47;;;9.84;50.67
8573;BME280;4324;42.012;24.872;2022-10-19T03:51:22;99371.50;;;9.85;50.70
8573;BME280;4324;42.012;24.872;2022-10-19T03:53:51;99363.56;;;9.85;50.59
8573;BME280;4324;42.012;24.872;2022-10-19T03:56:20;99317.13;;;9.64;50.32
8573;BME280;4324;42.012;24.872;2022-10-19T03:58:48;99354.78;;;9.84;49.96
8573;BME280;4324;42.012;24.872;2022-10-19T04:01:18;99347.63;;;9.77;50.06
8573;BME280;4324;42.012;24.872;2022-10-19T04:03:45;99346.63;;;9.78;50.16
8573;BME280;4324;42.012;24.872;2022-10-19T04:06:13;99343.22;;;9.67;50.02
8573;BME280;4324;42.012;24.872;2022-10-19T04:08:41;99349.75;;;9.73;49.87
8573;BME280;4324;42.012;24.872;2022-10-19T04:11:11;99342.63;;;9.74;50.04
8573;BME280;4324;42.012;24.872;2022-10-19T04:13:41;99339.31;;;9.72;49.96
8573;BME280;4324;42.012;24.872;2022-10-19T04:16:09;99325.06;;;9.64;49.90
8573;BME280;4324;42.012;24.872;2022-10-19T04:18:40;99330.34;;;9.64;49.90
8573;BME280;4324;42.012;24.872;2022-10-19T04:21:19;99327.47;;;9.58;49.81
8573;BME280;4324;42.012;24.872;2022-10-19T04:23:46;99323.00;;;9.58;49.68
8573;BME280;4324;42.012;24.872;2022-10-19T04:26:13;99323.31;;;9.55;49.85
8573;BME280;4324;42.012;24.872;2022-10-19T04:28:40;99316.44;;;9.44;49.79
8573;BME280;4324;42.012;24.872;2022-10-19T04:31:07;99327.53;;;9.48;49.86
8573;BME280;4324;42.012;24.872;2022-10-19T04:33:35;99330.63;;;9.43;49.88
8573;BME280;4324;42.012;24.872;2022-10-19T04:36:05;99311.53;;;9.32;49.81
8573;BME280;4324;42.012;24.872;2022-10-19T04:38:33;99326.47;;;9.41;49.93
8573;BME280;4324;42.012;24.872;2022-10-19T04:41:01;99328.16;;;9.42;50.03
8573;BME280;4324;42.012;24.872;2022-10-19T04:43:28;99330.94;;;9.40;49.79
8573;BME280;4324;42.012;24.872;2022-10-19T04:45:55;99314.31;;;9.30;49.86
8573;BME280;4324;42.012;24.872;2022-10-19T04:48:22;99330.94;;;9.40;50.07
8573;BME280;4324;42.012;24.872;2022-10-19T04:50:53;99325.50;;;9.42;49.64
8573;BME280;4324;42.012;24.872;2022-10-19T04:53:21;99322.53;;;9.45;49.76
8573;BME280;4324;42.012;24.872;2022-10-19T04:55:49;99303.97;;;9.37;49.51
8573;BME280;4324;42.012;24.872;2022-10-19T04:58:16;99308.72;;;9.51;49.30
8573;BME280;4324;42.012;24.872;2022-10-19T05:00:42;99312.88;;;9.54;49.47
8573;BME280;4324;42.012;24.872;2022-10-19T05:03:09;99310.09;;;9.55;49.67
8573;BME280;4324;42.012;24.872;2022-10-19T05:05:36;99306.44;;;9.56;49.35
8573;BME280;4324;42.012;24.872;2022-10-19T05:08:03;99312.44;;;9.58;49.31
8573;BME280;4324;42.012;24.872;2022-10-19T05:10:32;99311.31;;;9.61;49.20
8573;BME280;4324;42.012;24.872;2022-10-19T05:12:59;99317.13;;;9.64;49.02
8573;BME280;4324;42.012;24.872;2022-10-19T05:15:26;99312.66;;;9.65;49.21
8573;BME280;4324;42.012;24.872;2022-10-19T05:17:53;99313.19;;;9.68;49.42
8573;BME280;4324;42.012;24.872;2022-10-19T05:20:20;99247.13;;;9.33;49.12
8573;BME280;4324;42.012;24.872;2022-10-19T05:22:47;99302.31;;;9.72;49.20
8573;BME280;4324;42.012;24.872;2022-10-19T05:25:14;99302.97;;;9.74;49.12
8573;BME280;4324;42.012;24.872;2022-10-19T05:27:43;99304.09;;;9.71;48.95
8573;BME280;4324;42.012;24.872;2022-10-19T05:30:10;99320.88;;;9.80;49.04
8573;BME280;4324;42.012;24.872;2022-10-19T05:32:43;99302.81;;;9.75;49.01
8573;BME280;4324;42.012;24.872;2022-10-19T05:35:10;99300.16;;;9.75;48.72
8573;BME280;4324;42.012;24.872;2022-10-19T05:37:37;99292.91;;;9.77;48.52
8573;BME280;4324;42.012;24.872;2022-10-19T05:40:06;99280.47;;;9.69;48.53
8573;BME280;4324;42.012;24.872;2022-10-19T05:42:33;99281.22;;;9.80;48.52
8573;BME280;4324;42.012;24.872;2022-10-19T05:45:02;99309.78;;;10.02;48.20
8573;BME280;4324;42.012;24.872;2022-10-19T05:47:30;99284.94;;;9.95;48.14
8573;BME280;4324;42.012;24.872;2022-10-19T05:49:57;99316.50;;;10.14;48.02
8573;BME280;4324;42.012;24.872;2022-10-19T05:52:23;99317.22;;;10.25;47.82
8573;BME280;4324;42.012;24.872;2022-10-19T05:54:50;99312.81;;;10.33;47.84
8573;BME280;4324;42.012;24.872;2022-10-19T05:57:18;99318.34;;;10.40;47.99
8573;BME280;4324;42.012;24.872;2022-10-19T05:59:45;99292.66;;;10.32;47.45
8573;BME280;4324;42.012;24.872;2022-10-19T06:02:13;99258.78;;;10.18;47.47
8573;BME280;4324;42.012;24.872;2022-10-19T06:04:40;99306.97;;;10.56;47.25
8573;BME280;4324;42.012;24.872;2022-10-19T06:07:07;99315.31;;;10.61;47.48
8573;BME280;4324;42.012;24.872;2022-10-19T06:09:34;99305.22;;;10.64;47.48
8573;BME280;4324;42.012;24.872;2022-10-19T06:12:02;99313.50;;;10.70;47.49
8573;BME280;4324;42.012;24.872;2022-10-19T06:14:29;99286.63;;;10.56;47.39
8573;BME280;4324;42.012;24.872;2022-10-19T06:16:56;99308.25;;;10.78;47.10
8573;BME280;4324;42.012;24.872;2022-10-19T06:19:24;99314.25;;;10.88;47.00
8573;BME280;4324;42.012;24.872;2022-10-19T06:21:51;99305.47;;;10.87;46.89
8573;BME280;4324;42.012;24.872;2022-10-19T06:24:21;99315.59;;;11.00;46.81
8573;BME280;4324;42.012;24.872;2022-10-19T06:26:48;99317.44;;;11.08;46.88
8573;BME280;4324;42.012;24.872;2022-10-19T06:29:14;99307.66;;;11.08;46.61
8573;BME280;4324;42.012;24.872;2022-10-19T06:31:44;99290.81;;;11.09;46.22
8573;BME280;4324;42.012;24.872;2022-10-19T06:34:14;99309.38;;;11.26;46.47
8573;BME280;4324;42.012;24.872;2022-10-19T06:36:42;99298.78;;;11.26;46.49
8573;BME280;4324;42.012;24.872;2022-10-19T06:39:09;99296.50;;;11.39;46.30
8573;BME280;4324;42.012;24.872;2022-10-19T06:41:36;99301.16;;;11.53;46.41
8573;BME280;4324;42.012;24.872;2022-10-19T06:44:02;99287.38;;;11.50;46.28
8573;BME280;4324;42.012;24.872;2022-10-19T06:46:29;99299.81;;;11.66;46.21
8573;BME280;4324;42.012;24.872;2022-10-19T06:48:58;99294.19;;;11.77;46.09
8573;BME280;4324;42.012;24.872;2022-10-19T06:51:27;99289.06;;;11.83;45.81
8573;BME280;4324;42.012;24.872;2022-10-19T06:53:56;99292.53;;;11.92;45.96
8573;BME280;4324;42.012;24.872;2022-10-19T06:56:23;99291.88;;;11.98;46.24
8573;BME280;4324;42.012;24.872;2022-10-19T06:58:50;99293.00;;;12.04;45.91
8573;BME280;4324;42.012;24.872;2022-10-19T07:01:17;99289.50;;;12.11;46.28
8573;BME280;4324;42.012;24.872;2022-10-19T07:03:44;99284.19;;;12.20;46.31
8573;BME280;4324;42.012;24.872;2022-10-19T07:06:12;99287.47;;;12.30;46.20
8573;BME280;4324;42.012;24.872;2022-10-19T07:08:40;99274.88;;;12.32;46.30
8573;BME280;4324;42.012;24.872;2022-10-19T07:11:11;99288.75;;;12.50;46.02
8573;BME280;4324;42.012;24.872;2022-10-19T07:13:39;99282.41;;;12.59;45.64
8573;BME280;4324;42.012;24.872;2022-10-19T07:16:07;99285.50;;;12.71;45.82
8573;BME280;4324;42.012;24.872;2022-10-19T07:18:37;99281.66;;;12.82;45.85
8573;BME280;4324;42.012;24.872;2022-10-19T07:21:06;99274.97;;;12.94;45.59
8573;BME280;4324;42.012;24.872;2022-10-19T07:23:35;99278.03;;;13.06;45.33
8573;BME280;4324;42.012;24.872;2022-10-19T07:26:06;99281.47;;;13.15;45.27
8573;BME280;4324;42.012;24.872;2022-10-19T07:28:35;99272.81;;;13.21;45.18
8573;BME280;4324;42.012;24.872;2022-10-19T07:31:07;99243.91;;;13.18;45.21
8573;BME280;4324;42.012;24.872;2022-10-19T07:33:35;99267.72;;;13.42;45.08
8573;BME280;4324;42.012;24.872;2022-10-19T07:36:04;99262.31;;;13.50;44.88
8573;BME280;4324;42.012;24.872;2022-10-19T07:38:32;99261.91;;;13.62;44.73
8573;BME280;4324;42.012;24.872;2022-10-19T07:41:01;99237.94;;;13.62;44.65
8573;BME280;4324;42.012;24.872;2022-10-19T07:43:28;99258.72;;;13.81;44.75
8573;BME280;4324;42.012;24.872;2022-10-19T07:46:01;99252.03;;;13.85;44.89
8573;BME280;4324;42.012;24.872;2022-10-19T07:48:28;99247.09;;;13.97;44.58
8573;BME280;4324;42.012;24.872;2022-10-19T07:50:56;99235.88;;;14.01;44.18
8573;BME280;4324;42.012;24.872;2022-10-19T07:53:23;99242.88;;;14.17;44.18
8573;BME280;4324;42.012;24.872;2022-10-19T07:55:50;99239.94;;;14.27;44.07
8573;BME280;4324;42.012;24.872;2022-10-19T07:58:16;99230.19;;;14.34;44.00
8573;BME280;4324;42.012;24.872;2022-10-19T08:00:43;99224.75;;;14.42;44.18
8573;BME280;4324;42.012;24.872;2022-10-19T08:03:12;99225.34;;;14.52;44.57
8573;BME280;4324;42.012;24.872;2022-10-19T08:05:39;99217.25;;;14.61;45.07
8573;BME280;4324;42.012;24.872;2022-10-19T08:08:05;99216.97;;;14.70;45.56
8573;BME280;4324;42.012;24.872;2022-10-19T08:10:33;99220.53;;;14.77;45.66
8573;BME280;4324;42.012;24.872;2022-10-19T08:12:59;99221.44;;;14.85;45.94
8573;BME280;4324;42.012;24.872;2022-10-19T08:15:28;99212.41;;;14.86;46.23
8573;BME280;4324;42.012;24.872;2022-10-19T08:17:54;99216.69;;;15.01;46.57
8573;BME280;4324;42.012;24.872;2022-10-19T08:20:23;99216.31;;;15.05;46.74
8573;BME280;4324;42.012;24.872;2022-10-19T08:22:49;99221.34;;;15.14;46.63
8573;BME280;4324;42.012;24.872;2022-10-19T08:25:16;99192.56;;;15.10;46.84
8573;BME280;4324;42.012;24.872;2022-10-19T08:27:44;99204.38;;;15.22;47.24
8573;BME280;4324;42.012;24.872;2022-10-19T08:30:11;99204.88;;;15.32;47.16
8573;BME280;4324;42.012;24.872;2022-10-19T08:32:38;99201.84;;;15.35;47.19
8573;BME280;4324;42.012;24.872;2022-10-19T08:35:05;99200.69;;;15.44;47.30
8573;BME280;4324;42.012;24.872;2022-10-19T08:37:34;99195.56;;;15.49;47.35
8573;BME280;4324;42.012;24.872;2022-10-19T08:40:01;99188.41;;;15.50;47.44
8573;BME280;4324;42.012;24.872;2022-10-19T08:42:31;99189.47;;;15.56;47.42
8573;BME280;4324;42.012;24.872;2022-10-19T08:45:13;99186.03;;;15.62;47.45
8573;BME280;4324;42.012;24.872;2022-10-19T08:47:55;99180.31;;;15.65;47.41
8573;BME280;4324;42.012;24.872;2022-10-19T08:50:26;99155.59;;;15.56;47.59
8573;BME280;4324;42.012;24.872;2022-10-19T08:52:59;99169.69;;;15.71;47.74
8573;BME280;4324;42.012;24.872;2022-10-19T08:55:35;99186.88;;;15.90;47.67
8573;BME280;4324;42.012;24.872;2022-10-19T08:58:19;99170.63;;;15.85;47.72
8573;BME280;4324;42.012;24.872;2022-10-19T09:00:51;99181.78;;;15.95;47.76
8573;BME280;4324;42.012;24.872;2022-10-19T09:03:24;99168.81;;;15.92;47.90
8573;BME280;4324;42.012;24.872;2022-10-19T09:05:58;99172.78;;;16.03;47.83
8573;BME280;4324;42.012;24.872;2022-10-19T09:08:29;99174.47;;;16.11;47.84
8573;BME280;4324;42.012;24.872;2022-10-19T09:10:56;99168.13;;;16.18;47.79
8573;BME280;4324;42.012;24.872;2022-10-19T09:13:33;99160.38;;;16.30;47.85
8573;BME280;4324;42.012;24.872;2022-10-19T09:16:02;99151.31;;;16.31;47.60
8573;BME280;4324;42.012;24.872;2022-10-19T09:18:31;99156.91;;;16.36;47.63
8573;BME280;4324;42.012;24.872;2022-10-19T09:21:02;99156.72;;;16.44;47.63
8573;BME280;4324;42.012;24.872;2022-10-19T09:23:37;99141.34;;;16.47;47.60
8573;BME280;4324;42.012;24.872;2022-10-19T09:26:09;99151.22;;;16.53;47.39
8573;BME280;4324;42.012;24.872;2022-10-19T09:28:45;99154.13;;;16.58;47.03
8573;BME280;4324;42.012;24.872;2022-10-19T09:31:19;99145.47;;;16.56;46.92
8573;BME280;4324;42.012;24.872;2022-10-19T09:33:52;99150.84;;;16.62;46.63
8573;BME280;4324;42.012;24.872;2022-10-19T09:36:23;99146.31;;;16.63;46.60
8573;BME280;4324;42.012;24.872;2022-10-19T09:38:56;99140.56;;;16.66;46.44
8573;BME280;4324;42.012;24.872;2022-10-19T09:41:27;99138.09;;;16.71;46.12
8573;BME280;4324;42.012;24.872;2022-10-19T09:43:57;99141.44;;;16.86;46.01
8573;BME280;4324;42.012;24.872;2022-10-19T09:46:41;99132.63;;;16.92;45.66
8573;BME280;4324;42.012;24.872;2022-10-19T09:49:09;99123.78;;;16.99;45.65
8573;BME280;4324;42.012;24.872;2022-10-19T09:51:44;99129.53;;;17.09;45.18
8573;BME280;4324;42.012;24.872;2022-10-19T09:54:34;99120.50;;;17.10;45.01
8573;BME280;4324;42.012;24.872;2022-10-19T09:57:02;99118.25;;;17.13;44.93
8573;BME280;4324;42.012;24.872;2022-10-19T09:59:32;99123.78;;;17.25;44.75
8573;BME280;4324;42.012;24.872;2022-10-19T10:04:46;99085.50;;;17.25;44.67
8573;BME280;4324;42.012;24.872;2022-10-19T10:07:15;99108.13;;;17.49;44.39
8573;BME280;4324;42.012;24.872;2022-10-19T10:09:44;99095.78;;;17.54;44.01
8573;BME280;4324;42.012;24.872;2022-10-19T10:12:14;99069.41;;;17.45;44.19
8573;BME280;4324;42.012;24.872;2022-10-19T10:14:42;99090.38;;;17.61;44.06
8573;BME280;4324;42.012;24.872;2022-10-19T10:17:14;99079.88;;;17.66;43.84
8573;BME280;4324;42.012;24.872;2022-10-19T10:19:51;99089.72;;;17.72;43.72
8573;BME280;4324;42.012;24.872;2022-10-19T10:22:29;99074.94;;;17.76;43.52
8573;BME280;4324;42.012;24.872;2022-10-19T10:24:57;99087.06;;;17.85;43.15
8573;BME280;4324;42.012;24.872;2022-10-19T10:27:30;99082.53;;;17.86;43.31
8573;BME280;4324;42.012;24.872;2022-10-19T10:29:57;99057.03;;;17.77;43.21
8573;BME280;4324;42.012;24.872;2022-10-19T10:32:25;99075.06;;;17.95;43.02
8573;BME280;4324;42.012;24.872;2022-10-19T10:34:59;99046.66;;;17.87;43.06
8573;BME280;4324;42.012;24.872;2022-10-19T10:37:29;99060.03;;;17.94;42.97
8573;BME280;4324;42.012;24.872;2022-10-19T10:40:03;99058.38;;;17.99;42.79
8573;BME280;4324;42.012;24.872;2022-10-19T10:42:35;99041.50;;;17.92;42.65
8573;BME280;4324;42.012;24.872;2022-10-19T10:45:05;99046.63;;;18.00;42.40
8573;BME280;4324;42.012;24.872;2022-10-19T10:47:42;98990.66;;;17.72;41.96
8573;BME280;4324;42.012;24.872;2022-10-19T10:50:19;99043.44;;;18.17;41.79
8573;BME280;4324;42.012;24.872;2022-10-19T10:52:58;99038.66;;;18.25;41.29
8573;BME280;4324;42.012;24.872;2022-10-19T10:55:27;99039.03;;;18.35;41.34
8573;BME280;4324;42.012;24.872;2022-10-19T10:58:08;99033.00;;;18.40;41.24
8573;BME280;4324;42.012;24.872;2022-10-19T11:00:38;99036.09;;;18.44;41.57
8573;BME280;4324;42.012;24.872;2022-10-19T11:03:12;99027.63;;;18.47;41.41
8573;BME280;4324;42.012;24.872;2022-10-19T11:05:43;99013.59;;;18.45;41.08
8573;BME280;4324;42.012;24.872;2022-10-19T11:08:19;99029.59;;;18.58;41.02
8573;BME280;4324;42.012;24.872;2022-10-19T11:10:53;99023.34;;;18.64;41.11
8573;BME280;4324;42.012;24.872;2022-10-19T11:13:26;99009.13;;;18.63;41.07
8573;BME280;4324;42.012;24.872;2022-10-19T11:15:57;99017.31;;;18.75;40.52
8573;BME280;4324;42.012;24.872;2022-10-19T11:18:29;98996.09;;;18.67;40.59
8573;BME280;4324;42.012;24.872;2022-10-19T11:21:04;99003.25;;;18.80;40.54
8573;BME280;4324;42.012;24.872;2022-10-19T11:23:50;98992.06;;;18.83;40.15
8573;BME280;4324;42.012;24.872;2022-10-19T11:26:38;98990.81;;;18.85;40.03
8573;BME280;4324;42.012;24.872;2022-10-19T11:29:29;98971.91;;;18.80;39.32
8573;BME280;4324;42.012;24.872;2022-10-19T11:31:58;98995.25;;;18.98;39.32
8573;BME280;4324;42.012;24.872;2022-10-19T11:34:44;98992.94;;;19.02;39.12
8573;BME280;4324;42.012;24.872;2022-10-19T11:37:22;98990.44;;;19.07;39.20
8573;BME280;4324;42.012;24.872;2022-10-19T11:40:02;98987.06;;;19.12;39.11
8573;BME280;4324;42.012;24.872;2022-10-19T11:42:46;98982.69;;;19.17;39.26
8573;BME280;4324;42.012;24.872;2022-10-19T11:45:21;98978.34;;;19.16;39.07
8573;BME280;4324;42.012;24.872;2022-10-19T11:48:12;98973.59;;;19.18;39.24
8573;BME280;4324;42.012;24.872;2022-10-19T11:50:48;98968.66;;;19.15;39.17
8573;BME280;4324;42.012;24.872;2022-10-19T11:53:26;98971.06;;;19.23;39.12
8573;BME280;4324;42.012;24.872;2022-10-19T11:56:00;98978.81;;;19.31;38.91
8573;BME280;4324;42.012;24.872;2022-10-19T11:58:43;98966.00;;;19.33;38.64
8573;BME280;4324;42.012;24.872;2022-10-19T12:01:23;98960.94;;;19.44;38.58
8573;BME280;4324;42.012;24.872;2022-10-19T12:04:20;98961.66;;;19.51;38.51
8573;BME280;4324;42.012;24.872;2022-10-19T12:07:00;98956.19;;;19.57;37.75
8573;BME280;4324;42.012;24.872;2022-10-19T12:09:38;98958.66;;;19.59;37.86
8573;BME280;4324;42.012;24.872;2022-10-19T12:12:30;98933.63;;;19.47;38.01
8573;BME280;4324;42.012;24.872;2022-10-19T12:15:19;98931.53;;;19.49;37.81
8573;BME280;4324;42.012;24.872;2022-10-19T12:17:51;98952.41;;;19.65;37.55
8573;BME280;4324;42.012;24.872;2022-10-19T12:20:25;98953.75;;;19.74;37.38
8573;BME280;4324;42.012;24.872;2022-10-19T12:22:53;98951.69;;;19.76;37.15
8573;BME280;4324;42.012;24.872;2022-10-19T12:25:21;98943.13;;;19.79;36.73
8573;BME280;4324;42.012;24.872;2022-10-19T12:27:48;98939.44;;;19.80;36.87
8573;BME280;4324;42.012;24.872;2022-10-19T12:30:19;98938.94;;;19.83;36.75
8573;BME280;4324;42.012;24.872;2022-10-19T12:32:57;98936.63;;;19.87;36.66
8573;BME280;4324;42.012;24.872;2022-10-19T12:35:37;98922.81;;;19.83;36.88
8573;BME280;4324;42.012;24.872;2022-10-19T12:38:11;98912.31;;;19.82;36.84
8573;BME280;4324;42.012;24.872;2022-10-19T12:40:45;98909.88;;;19.80;36.64
8573;BME280;4324;42.012;24.872;2022-10-19T12:43:19;98910.28;;;19.96;36.53
8573;BME280;4324;42.012;24.872;2022-10-19T12:46:01;98912.63;;;20.04;36.59
8573;BME280;4324;42.012;24.872;2022-10-19T12:48:33;98887.59;;;19.92;36.75
8573;BME280;4324;42.012;24.872;2022-10-19T12:51:15;98904.56;;;20.04;36.24
8573;BME280;4324;42.012;24.872;2022-10-19T12:53:45;98897.41;;;19.98;36.21
8573;BME280;4324;42.012;24.872;2022-10-19T12:56:19;98906.78;;;20.07;36.05
8573;BME280;4324;42.012;24.872;2022-10-19T12:58:54;98907.63;;;20.08;36.21
8573;BME280;4324;42.012;24.872;2022-10-19T13:01:27;98898.13;;;20.05;36.22
8573;BME280;4324;42.012;24.872;2022-10-19T13:04:09;98901.88;;;20.04;36.20
8573;BME280;4324;42.012;24.872;2022-10-19T13:06:40;98905.16;;;20.06;35.70
8573;BME280;4324;42.012;24.872;2022-10-19T13:09:20;98906.34;;;20.10;35.88
8573;BME280;4324;42.012;24.872;2022-10-19T13:12:26;98903.41;;;20.12;35.93
8573;BME280;4324;42.012;24.872;2022-10-19T13:14:57;98897.31;;;20.04;35.82
8573;BME280;4324;42.012;24.872;2022-10-19T13:17:39;98871.69;;;19.90;35.45
8573;BME280;4324;42.012;24.872;2022-10-19T13:23:35;98884.69;;;20.05;35.52
8573;BME280;4324;42.012;24.872;2022-10-19T13:26:32;98879.56;;;20.03;35.42
8573;BME280;4324;42.012;24.872;2022-10-19T13:29:00;98867.19;;;20.02;35.35
8573;BME280;4324;42.012;24.872;2022-10-19T13:31:28;98866.13;;;20.03;35.42
8573;BME280;4324;42.012;24.872;2022-10-19T13:33:57;98856.19;;;20.04;35.36
8573;BME280;4324;42.012;24.872;2022-10-19T13:36:24;98866.34;;;20.02;34.99
8573;BME280;4324;42.012;24.872;2022-10-19T13:39:12;98864.69;;;20.01;35.08
8573;BME280;4324;42.012;24.872;2022-10-19T13:41:52;98852.31;;;19.88;35.06